createdAt,value
2017-04-27T00:01:38.295Z,0
2017-04-27T00:06:33.783Z,0
2017-04-27T00:11:29.373Z,0
2017-04-27T00:16:25.257Z,0
2017-04-27T00:21:20.989Z,0
2017-04-27T00:26:16.673Z,0
2017-04-27T00:31:12.418Z,0
2017-04-27T00:36:08.007Z,0
2017-04-27T00:41:03.591Z,0
2017-04-27T00:45:59.295Z,0
2017-04-27T00:50:55.503Z,0
2017-04-27T00:55:51.212Z,0
2017-04-27T01:00:47.448Z,0
2017-04-27T01:05:43.224Z,0
2017-04-27T01:10:38.985Z,0
2017-04-27T01:15:34.509Z,0
2017-04-27T01:20:30.190Z,0
2017-04-27T01:25:25.921Z,0
2017-04-27T01:30:21.699Z,0
2017-04-27T01:35:17.240Z,0
2017-04-27T01:40:13.327Z,0
2017-04-27T01:45:08.659Z,0
2017-04-27T01:50:04.681Z,0
2017-04-27T01:55:00.253Z,0
2017-04-27T01:59:55.981Z,0
2017-04-27T02:04:51.621Z,0
2017-04-27T02:09:47.411Z,0
2017-04-27T02:14:43.092Z,0
2017-04-27T02:19:38.687Z,0
2017-04-27T02:24:34.368Z,0
2017-04-27T02:29:29.696Z,0
2017-04-27T02:34:25.612Z,0
2017-04-27T02:39:20.979Z,0
2017-04-27T02:44:16.471Z,0
2017-04-27T02:49:12.786Z,0
2017-04-27T02:54:08.723Z,0
2017-04-27T02:59:04.492Z,0
2017-04-27T03:04:00.010Z,0
2017-04-27T03:08:55.768Z,0
2017-04-27T03:13:51.420Z,0
2017-04-27T03:18:49.051Z,0
2017-04-27T03:23:44.019Z,0
2017-04-27T03:28:39.501Z,0
2017-04-27T03:33:38.514Z,0
2017-04-27T03:38:33.708Z,0
2017-04-27T03:43:29.279Z,0
2017-04-27T03:48:25.198Z,0
2017-04-27T03:53:20.789Z,0
2017-04-27T03:58:16.456Z,0
2017-04-27T04:03:11.986Z,0
2017-04-27T04:08:07.647Z,5
2017-04-27T04:13:04.302Z,5
2017-04-27T04:17:59.580Z,10
2017-04-27T04:22:55.089Z,15
2017-04-27T04:27:51.794Z,20
2017-04-27T04:32:47.216Z,25
2017-04-27T04:37:42.711Z,30
2017-04-27T04:42:38.971Z,30
2017-04-27T04:47:34.910Z,40
2017-04-27T04:52:30.571Z,45
2017-04-27T04:57:26.646Z,55
2017-04-27T05:02:22.394Z,60
2017-04-27T05:07:18.273Z,65
2017-04-27T05:12:14.531Z,65
2017-04-27T05:17:10.272Z,65
2017-04-27T05:22:06.175Z,70
2017-04-27T05:27:02.216Z,70
2017-04-27T05:31:58.593Z,75
2017-04-27T05:36:54.385Z,75
2017-04-27T05:41:50.095Z,80
2017-04-27T05:46:45.932Z,85
2017-04-27T05:51:41.671Z,85
2017-04-27T05:56:37.473Z,90
2017-04-27T06:01:33.338Z,90
2017-04-27T06:06:29.726Z,90
2017-04-27T06:11:25.673Z,90
2017-04-27T06:16:21.320Z,95
2017-04-27T06:21:17.825Z,95
2017-04-27T06:26:13.252Z,100
2017-04-27T06:31:09.184Z,100
2017-04-27T06:36:04.861Z,100
2017-04-27T06:41:00.499Z,100
2017-04-27T06:45:56.190Z,100
2017-04-27T06:50:52.281Z,100
2017-04-27T06:55:47.908Z,105
2017-04-27T07:00:43.657Z,200
2017-04-27T07:05:39.460Z,110
2017-04-27T07:10:35.570Z,120
2017-04-27T07:15:31.299Z,120
2017-04-27T07:20:27.210Z,140
2017-04-27T07:25:23.049Z,135
2017-04-27T07:30:19.027Z,185
2017-04-27T07:35:15.802Z,120
2017-04-27T07:40:11.677Z,125
2017-04-27T07:45:07.523Z,120
2017-04-27T07:50:03.508Z,185
2017-04-27T07:54:59.274Z,215
2017-04-27T07:59:57.019Z,345
2017-04-27T08:04:53.782Z,1400
2017-04-27T08:09:51.971Z,320
2017-04-27T08:14:47.366Z,225
2017-04-27T08:19:42.365Z,345
2017-04-27T08:24:39.422Z,1485
2017-04-27T08:29:37.643Z,1525
2017-04-27T08:34:33.817Z,210
2017-04-27T08:39:27.907Z,155
2017-04-27T08:44:22.506Z,205
2017-04-27T08:49:17.749Z,1025
2017-04-27T08:54:14.314Z,355
2017-04-27T08:59:11.031Z,255
2017-04-27T09:04:09.274Z,210
2017-04-27T09:09:07.726Z,245
2017-04-27T09:14:02.252Z,220
2017-04-27T09:18:57.556Z,235
2017-04-27T09:23:53.651Z,335
2017-04-27T09:28:50.613Z,255
2017-04-27T09:33:47.095Z,1145
2017-04-27T09:38:44.656Z,1805
2017-04-27T09:43:42.521Z,205
2017-04-27T09:48:37.117Z,215
2017-04-27T09:53:32.526Z,1300
2017-04-27T09:58:30.875Z,1840
2017-04-27T10:03:28.222Z,1750
2017-04-27T10:08:24.670Z,1345
2017-04-27T10:13:20.314Z,1905
2017-04-27T10:18:17.328Z,1920
2017-04-27T10:23:19.844Z,1935
2017-04-27T10:28:17.770Z,2010
2017-04-27T10:33:14.761Z,1110
2017-04-27T10:38:07.462Z,165
2017-04-27T10:43:00.326Z,245
2017-04-27T10:47:55.091Z,1940
2017-04-27T10:52:50.731Z,210
2017-04-27T10:57:45.572Z,2020
2017-04-27T11:02:43.948Z,250
2017-04-27T11:07:38.316Z,235
2017-04-27T11:17:33.615Z,1930
2017-04-27T11:22:35.241Z,2040
2017-04-27T11:27:32.426Z,1815
2017-04-27T11:32:29.325Z,2080
2017-04-27T11:37:27.155Z,1850
2017-04-27T11:42:23.884Z,580
2017-04-27T11:47:16.509Z,220
2017-04-27T11:52:09.535Z,255
2017-04-27T11:57:05.382Z,1925
2017-04-27T12:02:00.538Z,465
2017-04-27T12:06:57.624Z,850
2017-04-27T12:11:56.495Z,2105
2017-04-27T12:16:54.017Z,1985
2017-04-27T12:21:50.547Z,1205
2017-04-27T12:26:44.175Z,435
2017-04-27T12:31:37.733Z,1695
2017-04-27T12:36:34.508Z,370
2017-04-27T12:41:28.209Z,435
2017-04-27T12:46:25.421Z,1875
2017-04-27T12:51:24.423Z,1600
2017-04-27T12:56:21.481Z,1525
2017-04-27T13:01:14.790Z,685
2017-04-27T13:06:10.114Z,990
2017-04-27T13:11:04.567Z,935
2017-04-27T13:16:01.105Z,380
2017-04-27T13:20:55.627Z,380
2017-04-27T13:25:52.119Z,645
2017-04-27T13:30:47.037Z,430
2017-04-27T13:35:42.314Z,605
2017-04-27T13:40:38.158Z,450
2017-04-27T13:45:33.900Z,395
2017-04-27T13:50:29.354Z,265
2017-04-27T13:55:24.956Z,270
2017-04-27T14:05:24.958Z,275
2017-04-27T14:10:21.283Z,430
2017-04-27T14:15:16.763Z,840
2017-04-27T14:20:13.503Z,1535
2017-04-27T14:25:10.138Z,1600
2017-04-27T14:30:06.472Z,1320
2017-04-27T14:35:02.479Z,245
2017-04-27T14:39:57.800Z,235
2017-04-27T14:44:53.026Z,210
2017-04-27T14:49:51.177Z,175
2017-04-27T14:59:52.502Z,160
2017-04-27T15:04:48.601Z,185
2017-04-27T15:09:52.104Z,190
2017-04-27T15:14:45.975Z,195
2017-04-27T15:19:41.455Z,170
2017-04-27T15:24:39.729Z,175
2017-04-27T15:29:35.481Z,190
2017-04-27T15:34:30.921Z,200
2017-04-27T15:39:27.015Z,200
2017-04-27T15:44:23.354Z,220
2017-04-27T15:49:20.368Z,220
2017-04-27T15:54:15.644Z,220
2017-04-27T15:59:11.731Z,190
2017-04-27T16:04:07.193Z,165
2017-04-27T16:09:02.829Z,140
2017-04-27T16:13:58.385Z,120
2017-04-27T16:18:53.994Z,105
2017-04-27T16:23:49.627Z,115
2017-04-27T16:28:46.040Z,120
2017-04-27T16:33:42.068Z,100
2017-04-27T16:38:40.532Z,105
2017-04-27T16:43:35.757Z,95
2017-04-27T16:48:32.768Z,80
2017-04-27T16:53:27.908Z,85
2017-04-27T16:58:23.445Z,80
2017-04-27T17:03:19.605Z,80
2017-04-27T17:08:15.194Z,75
2017-04-27T17:13:10.957Z,65
2017-04-27T17:18:06.709Z,60
2017-04-27T17:23:03.236Z,60
2017-04-27T17:27:59.453Z,60
2017-04-27T17:32:55.286Z,55
2017-04-27T17:37:50.589Z,55
2017-04-27T17:42:46.736Z,50
2017-04-27T17:47:42.140Z,50
2017-04-27T17:52:38.020Z,40
2017-04-27T17:57:33.893Z,35
2017-04-27T18:02:30.113Z,30
2017-04-27T18:17:25.802Z,20
2017-04-27T18:22:21.417Z,20
2017-04-27T18:27:16.892Z,15
2017-04-27T18:37:11.809Z,10
2017-04-27T18:42:08.133Z,5
2017-04-27T18:47:04.571Z,5
2017-04-27T18:52:06.054Z,0
2017-04-27T18:57:00.386Z,0
2017-04-27T19:06:58.630Z,0
2017-04-27T19:11:54.291Z,0
2017-04-27T19:16:52.552Z,0
2017-04-27T19:26:49.494Z,0
2017-04-27T19:36:46.956Z,0
2017-04-27T19:41:42.526Z,0
2017-04-27T19:46:38.903Z,0
2017-04-27T19:56:38.060Z,0
2017-04-27T20:01:33.343Z,0
2017-04-27T20:06:28.843Z,0
2017-04-27T20:11:28.097Z,0
2017-04-27T20:16:25.738Z,0
2017-04-27T20:21:20.775Z,0
2017-04-27T20:26:19.554Z,0
2017-04-27T20:31:14.617Z,0
2017-04-27T20:36:10.922Z,0
2017-04-27T20:41:06.808Z,0
2017-04-27T20:46:06.507Z,0
2017-04-27T20:51:04.701Z,0
2017-04-27T20:55:59.945Z,0
2017-04-27T21:00:55.604Z,0
2017-04-27T21:05:52.310Z,0
2017-04-27T21:10:48.086Z,0
2017-04-27T21:20:44.179Z,0
2017-04-27T21:30:43.446Z,0
2017-04-27T21:35:42.307Z,0
2017-04-27T21:40:40.007Z,0
2017-04-27T21:45:37.866Z,0
2017-04-27T21:50:48.203Z,0
2017-04-27T21:55:41.668Z,0
2017-04-27T22:00:42.246Z,0
2017-04-27T22:05:38.977Z,0
2017-04-27T22:10:37.869Z,0
2017-04-27T22:20:34.208Z,0
2017-04-27T22:25:29.210Z,0
2017-04-27T22:45:36.193Z,0
2017-04-27T22:50:32.110Z,0
2017-04-27T22:55:28.850Z,0
2017-04-27T23:05:24.209Z,0
2017-04-27T23:10:20.248Z,0
2017-04-27T23:15:16.472Z,0
2017-04-27T23:20:12.014Z,0
2017-04-27T23:25:11.395Z,0
2017-04-27T23:30:07.240Z,0
2017-04-27T23:35:02.772Z,0
2017-04-27T23:39:59.135Z,0
2017-04-27T23:49:56.205Z,0
2017-04-27T23:54:52.032Z,0
